createdAt,value
2022-07-27T04:42:28.878Z,56.85
2022-07-27T04:45:00.195Z,56.94
2022-07-27T05:14:22.275Z,56.96
2022-07-27T08:59:27.638Z,41.81
2022-07-27T09:01:58.476Z,42.08
2022-07-27T10:57:57.924Z,43.95
2022-07-27T11:01:18.980Z,44.69
2022-07-27T11:04:01.795Z,44.59
2022-07-27T11:26:19.626Z,43.70
2022-07-27T12:24:53.434Z,40.68
2022-07-27T12:41:57.812Z,38.62
2022-07-27T12:57:53.395Z,38.00
2022-07-27T13:04:03.592Z,36.84
2022-07-27T13:06:35.162Z,37.35
2022-07-27T13:15:11.441Z,36.58
2022-07-27T15:51:40.034Z,38.14
2022-07-27T15:54:13.141Z,38.07
2022-07-27T15:56:40.821Z,39.17
2022-07-27T16:16:39.689Z,38.57
2022-07-27T16:19:13.609Z,38.83
2022-07-27T16:21:53.637Z,39.19
2022-07-27T16:24:23.933Z,38.42
2022-07-27T16:26:50.855Z,38.79
2022-07-27T16:33:21.680Z,38.73
2022-07-27T17:28:23.538Z,39.17
2022-07-27T17:31:52.127Z,39.84
2022-07-27T17:44:03.135Z,39.36
2022-07-27T17:46:38.786Z,39.24
2022-07-27T17:54:15.774Z,39.73
2022-07-27T18:03:11.774Z,39.84
2022-07-27T18:08:58.747Z,39.76
2022-07-27T18:11:37.036Z,39.72
2022-07-27T18:14:19.600Z,40.48
2022-07-27T18:17:02.799Z,40.75
2022-07-27T18:44:43.984Z,40.66
2022-07-27T18:47:51.838Z,40.18
2022-07-27T18:50:39.199Z,40.67
2022-07-27T18:53:11.738Z,40.59
2022-07-27T18:55:43.290Z,40.38
2022-07-27T18:58:15.225Z,40.98
2022-07-27T19:03:48.234Z,42.20
2022-07-27T19:06:18.701Z,41.95
2022-07-27T19:09:03.904Z,42.22
2022-07-27T19:11:34.707Z,42.34
2022-07-27T19:14:05.026Z,41.83
2022-07-27T19:17:00.575Z,42.17
2022-07-27T19:19:41.736Z,41.69
2022-07-27T19:22:15.490Z,42.23
2022-07-27T19:24:50.171Z,41.99
2022-07-27T19:27:25.316Z,42.50
2022-07-27T19:29:59.359Z,42.47
2022-07-27T19:32:29.774Z,42.36
2022-07-27T19:35:00.740Z,42.11
2022-07-27T19:37:39.555Z,41.77
2022-07-27T19:40:41.465Z,41.97
2022-07-27T19:43:20.272Z,42.02
2022-07-27T19:46:16.089Z,42.27
2022-07-27T19:48:46.092Z,42.09
2022-07-27T20:18:52.699Z,42.01
2022-07-27T20:24:24.995Z,41.74
2022-07-27T20:46:57.284Z,41.54
2022-07-27T20:52:57.077Z,41.80
2022-07-27T20:55:43.702Z,41.71
2022-07-27T21:38:30.814Z,43.18
2022-07-27T21:43:49.589Z,43.52
2022-07-27T21:46:19.826Z,43.35
2022-07-27T21:49:07.833Z,43.17
2022-07-27T21:51:38.963Z,43.63
2022-07-27T21:54:15.070Z,44.19
2022-07-27T21:56:50.389Z,44.45
2022-07-27T21:59:22.407Z,43.97
2022-07-27T22:01:56.132Z,43.62
2022-07-27T22:04:25.570Z,43.76
2022-07-27T22:06:55.938Z,43.79
2022-07-27T22:09:41.063Z,44.27
2022-07-27T22:12:18.103Z,44.54
2022-07-27T22:14:49.008Z,44.70
2022-07-27T22:17:22.348Z,44.82
2022-07-27T22:19:55.333Z,44.55
2022-07-27T22:22:25.837Z,44.64
2022-07-27T22:25:02.346Z,44.80
2022-07-27T22:27:32.702Z,45.06
2022-07-27T22:30:02.981Z,45.15
2022-07-27T22:32:42.675Z,45.37
2022-07-27T22:35:12.444Z,45.05
2022-07-27T22:37:44.106Z,45.13
2022-07-27T22:40:19.071Z,45.11
2022-07-27T22:43:12.196Z,45.64
2022-07-27T22:45:42.725Z,46.18
2022-07-27T22:48:14.861Z,45.97
2022-07-27T22:50:57.598Z,46.22
2022-07-27T22:53:32.024Z,45.99
2022-07-27T22:56:01.948Z,46.06
2022-07-27T22:58:38.571Z,46.76
2022-07-27T23:01:08.210Z,46.48
2022-07-27T23:04:00.285Z,46.54
2022-07-27T23:06:40.651Z,46.57
2022-07-27T23:09:13.673Z,47.05
2022-07-27T23:11:44.233Z,47.58
2022-07-27T23:14:14.676Z,47.61
2022-07-27T23:16:45.439Z,47.94
2022-07-27T23:19:33.189Z,48.39
2022-07-27T23:22:03.543Z,48.30
2022-07-27T23:24:37.778Z,48.14
2022-07-27T23:27:11.277Z,48.40
2022-07-27T23:29:45.281Z,48.48
2022-07-27T23:32:27.671Z,48.74
2022-07-27T23:35:00.093Z,48.43
2022-07-27T23:37:30.105Z,48.67
2022-07-27T23:40:02.724Z,48.41
2022-07-27T23:42:48.316Z,48.69
2022-07-27T23:45:46.853Z,48.95
2022-07-27T23:48:20.382Z,49.65
2022-07-27T23:50:56.408Z,49.81
2022-07-27T23:53:27.693Z,49.41
2022-07-27T23:56:02.921Z,49.97
2022-07-27T23:58:39.698Z,50.02
